sensor_id;sensor_type;location;lat;lon;timestamp;temperature;humidity
74384;DHT22;62824;52.994;-3.936;2023-05-21T00:01:12;15.50;26.80
74384;DHT22;62824;52.994;-3.936;2023-05-21T00:03:42;15.10;27.80
74384;DHT22;62824;52.994;-3.936;2023-05-21T00:06:11;15.10;28.20
74384;DHT22;62824;52.994;-3.936;2023-05-21T00:08:38;15.20;28.00
74384;DHT22;62824;52.994;-3.936;2023-05-21T00:11:04;15.20;27.60
74384;DHT22;62824;52.994;-3.936;2023-05-21T00:13:30;15.00;28.60
74384;DHT22;62824;52.994;-3.936;2023-05-21T00:15:56;14.90;29.60
74384;DHT22;62824;52.994;-3.936;2023-05-21T00:18:22;15.00;29.60
74384;DHT22;62824;52.994;-3.936;2023-05-21T00:20:50;15.00;29.70
74384;DHT22;62824;52.994;-3.936;2023-05-21T00:23:15;15.00;29.60
74384;DHT22;62824;52.994;-3.936;2023-05-21T00:25:43;14.80;30.30
74384;DHT22;62824;52.994;-3.936;2023-05-21T00:28:10;14.70;31.90
74384;DHT22;62824;52.994;-3.936;2023-05-21T00:30:35;14.80;32.20
74384;DHT22;62824;52.994;-3.936;2023-05-21T00:33:01;14.50;35.50
74384;DHT22;62824;52.994;-3.936;2023-05-21T00:35:27;14.40;35.70
74384;DHT22;62824;52.994;-3.936;2023-05-21T00:37:54;14.40;38.10
74384;DHT22;62824;52.994;-3.936;2023-05-21T00:40:20;14.30;40.50
74384;DHT22;62824;52.994;-3.936;2023-05-21T00:42:45;14.30;40.00
74384;DHT22;62824;52.994;-3.936;2023-05-21T00:45:12;14.30;41.00
74384;DHT22;62824;52.994;-3.936;2023-05-21T00:47:40;14.30;41.10
74384;DHT22;62824;52.994;-3.936;2023-05-21T00:50:07;14.10;44.40
74384;DHT22;62824;52.994;-3.936;2023-05-21T00:52:33;14.20;43.60
74384;DHT22;62824;52.994;-3.936;2023-05-21T00:55:06;14.30;40.80
74384;DHT22;62824;52.994;-3.936;2023-05-21T00:57:34;14.40;37.60
74384;DHT22;62824;52.994;-3.936;2023-05-21T01:00:03;14.30;40.00
74384;DHT22;62824;52.994;-3.936;2023-05-21T01:02:34;14.20;42.00
74384;DHT22;62824;52.994;-3.936;2023-05-21T01:05:01;14.20;41.50
74384;DHT22;62824;52.994;-3.936;2023-05-21T01:07:32;14.10;44.30
74384;DHT22;62824;52.994;-3.936;2023-05-21T01:10:06;14.10;47.30
74384;DHT22;62824;52.994;-3.936;2023-05-21T01:12:34;14.10;47.90
74384;DHT22;62824;52.994;-3.936;2023-05-21T01:15:03;14.10;46.30
74384;DHT22;62824;52.994;-3.936;2023-05-21T01:17:30;14.10;44.40
74384;DHT22;62824;52.994;-3.936;2023-05-21T01:19:59;14.00;46.70
74384;DHT22;62824;52.994;-3.936;2023-05-21T01:22:27;14.00;47.10
74384;DHT22;62824;52.994;-3.936;2023-05-21T01:24:56;14.00;42.20
74384;DHT22;62824;52.994;-3.936;2023-05-21T01:27:22;14.00;40.40
74384;DHT22;62824;52.994;-3.936;2023-05-21T01:29:48;13.90;42.10
74384;DHT22;62824;52.994;-3.936;2023-05-21T01:32:37;13.90;39.80
74384;DHT22;62824;52.994;-3.936;2023-05-21T01:35:10;14.00;37.60
74384;DHT22;62824;52.994;-3.936;2023-05-21T01:40:44;13.90;39.60
74384;DHT22;62824;52.994;-3.936;2023-05-21T01:43:11;13.80;38.60
74384;DHT22;62824;52.994;-3.936;2023-05-21T01:45:39;13.80;40.20
74384;DHT22;62824;52.994;-3.936;2023-05-21T01:48:08;13.90;37.90
74384;DHT22;62824;52.994;-3.936;2023-05-21T01:50:36;14.00;37.90
74384;DHT22;62824;52.994;-3.936;2023-05-21T01:53:03;14.00;36.80
74384;DHT22;62824;52.994;-3.936;2023-05-21T01:55:30;13.90;37.90
74384;DHT22;62824;52.994;-3.936;2023-05-21T01:57:57;13.70;41.60
74384;DHT22;62824;52.994;-3.936;2023-05-21T02:00:25;13.60;41.10
74384;DHT22;62824;52.994;-3.936;2023-05-21T02:02:53;13.60;40.10
74384;DHT22;62824;52.994;-3.936;2023-05-21T02:05:19;13.70;39.20
74384;DHT22;62824;52.994;-3.936;2023-05-21T02:07:45;13.70;37.80
74384;DHT22;62824;52.994;-3.936;2023-05-21T02:10:12;13.70;36.30
74384;DHT22;62824;52.994;-3.936;2023-05-21T02:12:38;13.80;37.80
74384;DHT22;62824;52.994;-3.936;2023-05-21T02:15:04;13.50;40.60
74384;DHT22;62824;52.994;-3.936;2023-05-21T02:17:30;13.50;41.50
74384;DHT22;62824;52.994;-3.936;2023-05-21T02:20:01;13.40;41.80
74384;DHT22;62824;52.994;-3.936;2023-05-21T02:22:39;13.50;40.10
74384;DHT22;62824;52.994;-3.936;2023-05-21T02:25:07;13.60;39.30
74384;DHT22;62824;52.994;-3.936;2023-05-21T02:27:34;13.70;37.00
74384;DHT22;62824;52.994;-3.936;2023-05-21T02:30:09;13.70;37.10
74384;DHT22;62824;52.994;-3.936;2023-05-21T02:32:35;13.60;37.70
74384;DHT22;62824;52.994;-3.936;2023-05-21T02:35:02;13.30;40.10
74384;DHT22;62824;52.994;-3.936;2023-05-21T02:37:29;13.30;42.10
74384;DHT22;62824;52.994;-3.936;2023-05-21T02:39:58;13.20;42.00
74384;DHT22;62824;52.994;-3.936;2023-05-21T02:42:24;13.20;42.80
74384;DHT22;62824;52.994;-3.936;2023-05-21T02:44:51;13.40;42.00
74384;DHT22;62824;52.994;-3.936;2023-05-21T02:47:18;13.50;38.80
74384;DHT22;62824;52.994;-3.936;2023-05-21T02:49:44;13.50;39.00
74384;DHT22;62824;52.994;-3.936;2023-05-21T02:52:10;13.40;38.40
74384;DHT22;62824;52.994;-3.936;2023-05-21T02:54:35;13.30;38.40
74384;DHT22;62824;52.994;-3.936;2023-05-21T02:57:01;13.40;39.20
74384;DHT22;62824;52.994;-3.936;2023-05-21T02:59:27;13.40;38.70
74384;DHT22;62824;52.994;-3.936;2023-05-21T03:01:53;13.50;37.10
74384;DHT22;62824;52.994;-3.936;2023-05-21T03:04:18;13.50;36.90
74384;DHT22;62824;52.994;-3.936;2023-05-21T03:06:48;13.60;35.60
74384;DHT22;62824;52.994;-3.936;2023-05-21T03:09:16;13.60;36.30
74384;DHT22;62824;52.994;-3.936;2023-05-21T03:11:42;13.50;39.30
74384;DHT22;62824;52.994;-3.936;2023-05-21T03:14:08;13.50;40.00
74384;DHT22;62824;52.994;-3.936;2023-05-21T03:16:34;13.30;45.00
74384;DHT22;62824;52.994;-3.936;2023-05-21T03:19:00;13.40;45.00
74384;DHT22;62824;52.994;-3.936;2023-05-21T03:21:26;13.40;44.90
74384;DHT22;62824;52.994;-3.936;2023-05-21T03:23:55;13.40;47.40
74384;DHT22;62824;52.994;-3.936;2023-05-21T03:26:26;13.40;45.50
74384;DHT22;62824;52.994;-3.936;2023-05-21T03:28:52;13.30;45.30
74384;DHT22;62824;52.994;-3.936;2023-05-21T03:31:18;13.30;45.90
74384;DHT22;62824;52.994;-3.936;2023-05-21T03:33:44;13.30;43.40
74384;DHT22;62824;52.994;-3.936;2023-05-21T03:36:10;13.40;42.50
74384;DHT22;62824;52.994;-3.936;2023-05-21T03:38:36;13.40;41.70
74384;DHT22;62824;52.994;-3.936;2023-05-21T03:41:01;13.50;39.80
74384;DHT22;62824;52.994;-3.936;2023-05-21T03:43:27;13.50;40.80
74384;DHT22;62824;52.994;-3.936;2023-05-21T03:45:54;13.40;41.70
74384;DHT22;62824;52.994;-3.936;2023-05-21T03:48:20;13.30;42.50
74384;DHT22;62824;52.994;-3.936;2023-05-21T03:50:46;13.30;41.80
74384;DHT22;62824;52.994;-3.936;2023-05-21T03:53:11;13.20;42.80
74384;DHT22;62824;52.994;-3.936;2023-05-21T03:55:38;13.20;42.70
74384;DHT22;62824;52.994;-3.936;2023-05-21T03:58:04;13.10;43.20
74384;DHT22;62824;52.994;-3.936;2023-05-21T04:00:30;13.10;42.10
74384;DHT22;62824;52.994;-3.936;2023-05-21T04:02:57;13.10;42.00
74384;DHT22;62824;52.994;-3.936;2023-05-21T04:05:23;13.20;42.00
74384;DHT22;62824;52.994;-3.936;2023-05-21T04:07:49;13.30;40.30
74384;DHT22;62824;52.994;-3.936;2023-05-21T04:10:14;13.40;42.30
74384;DHT22;62824;52.994;-3.936;2023-05-21T04:12:40;13.50;41.00
74384;DHT22;62824;52.994;-3.936;2023-05-21T04:15:07;13.50;41.80
74384;DHT22;62824;52.994;-3.936;2023-05-21T04:17:32;13.60;43.80
74384;DHT22;62824;52.994;-3.936;2023-05-21T04:19:59;13.60;43.40
74384;DHT22;62824;52.994;-3.936;2023-05-21T04:22:25;13.70;42.70
74384;DHT22;62824;52.994;-3.936;2023-05-21T04:24:54;13.70;43.90
74384;DHT22;62824;52.994;-3.936;2023-05-21T04:27:24;13.80;42.50
74384;DHT22;62824;52.994;-3.936;2023-05-21T04:29:49;13.70;39.90
74384;DHT22;62824;52.994;-3.936;2023-05-21T04:32:15;13.70;39.30
74384;DHT22;62824;52.994;-3.936;2023-05-21T04:34:43;13.80;37.80
74384;DHT22;62824;52.994;-3.936;2023-05-21T04:37:09;13.80;36.90
74384;DHT22;62824;52.994;-3.936;2023-05-21T04:39:35;13.70;37.00
74384;DHT22;62824;52.994;-3.936;2023-05-21T04:42:01;13.60;46.90
74384;DHT22;62824;52.994;-3.936;2023-05-21T04:44:28;13.40;53.60
74384;DHT22;62824;52.994;-3.936;2023-05-21T04:46:54;13.30;55.20
74384;DHT22;62824;52.994;-3.936;2023-05-21T04:49:21;13.10;60.50
74384;DHT22;62824;52.994;-3.936;2023-05-21T04:51:47;13.10;63.30
74384;DHT22;62824;52.994;-3.936;2023-05-21T04:54:16;13.10;64.40
74384;DHT22;62824;52.994;-3.936;2023-05-21T04:56:42;13.20;63.80
74384;DHT22;62824;52.994;-3.936;2023-05-21T04:59:08;13.10;65.90
74384;DHT22;62824;52.994;-3.936;2023-05-21T05:01:34;13.10;67.40
74384;DHT22;62824;52.994;-3.936;2023-05-21T05:04:02;13.20;67.80
74384;DHT22;62824;52.994;-3.936;2023-05-21T05:06:28;13.20;66.00
74384;DHT22;62824;52.994;-3.936;2023-05-21T05:08:54;13.20;64.30
74384;DHT22;62824;52.994;-3.936;2023-05-21T05:11:20;13.20;64.60
74384;DHT22;62824;52.994;-3.936;2023-05-21T05:13:45;13.20;63.20
74384;DHT22;62824;52.994;-3.936;2023-05-21T05:16:11;13.30;57.30
74384;DHT22;62824;52.994;-3.936;2023-05-21T05:18:38;13.50;51.30
74384;DHT22;62824;52.994;-3.936;2023-05-21T05:21:04;13.70;39.60
74384;DHT22;62824;52.994;-3.936;2023-05-21T05:23:30;13.80;35.70
74384;DHT22;62824;52.994;-3.936;2023-05-21T05:25:56;13.90;33.50
74384;DHT22;62824;52.994;-3.936;2023-05-21T05:28:21;14.00;32.10
74384;DHT22;62824;52.994;-3.936;2023-05-21T05:30:47;14.10;32.00
74384;DHT22;62824;52.994;-3.936;2023-05-21T05:33:13;14.20;34.20
74384;DHT22;62824;52.994;-3.936;2023-05-21T05:35:39;14.20;31.90
74384;DHT22;62824;52.994;-3.936;2023-05-21T05:38:05;14.30;31.20
74384;DHT22;62824;52.994;-3.936;2023-05-21T05:40:33;14.40;33.50
74384;DHT22;62824;52.994;-3.936;2023-05-21T05:42:59;14.40;34.70
74384;DHT22;62824;52.994;-3.936;2023-05-21T05:45:25;14.30;37.60
74384;DHT22;62824;52.994;-3.936;2023-05-21T05:47:51;14.30;39.60
74384;DHT22;62824;52.994;-3.936;2023-05-21T05:50:17;14.10;38.20
74384;DHT22;62824;52.994;-3.936;2023-05-21T05:52:43;13.80;43.70
74384;DHT22;62824;52.994;-3.936;2023-05-21T05:55:09;13.70;48.30
74384;DHT22;62824;52.994;-3.936;2023-05-21T05:57:37;13.80;48.10
74384;DHT22;62824;52.994;-3.936;2023-05-21T06:00:06;14.00;46.70
74384;DHT22;62824;52.994;-3.936;2023-05-21T06:02:33;14.10;46.40
74384;DHT22;62824;52.994;-3.936;2023-05-21T06:04:59;14.20;45.10
74384;DHT22;62824;52.994;-3.936;2023-05-21T06:07:25;14.10;43.30
74384;DHT22;62824;52.994;-3.936;2023-05-21T06:09:51;14.10;47.00
74384;DHT22;62824;52.994;-3.936;2023-05-21T06:12:18;14.10;46.50
74384;DHT22;62824;52.994;-3.936;2023-05-21T06:14:43;14.10;48.30
74384;DHT22;62824;52.994;-3.936;2023-05-21T06:17:11;14.10;47.80
74384;DHT22;62824;52.994;-3.936;2023-05-21T06:19:36;14.30;44.80
74384;DHT22;62824;52.994;-3.936;2023-05-21T06:22:02;14.30;41.70
74384;DHT22;62824;52.994;-3.936;2023-05-21T06:24:29;14.30;41.40
74384;DHT22;62824;52.994;-3.936;2023-05-21T06:26:57;14.30;41.60
74384;DHT22;62824;52.994;-3.936;2023-05-21T06:29:23;14.30;41.10
74384;DHT22;62824;52.994;-3.936;2023-05-21T06:31:49;14.40;42.00
74384;DHT22;62824;52.994;-3.936;2023-05-21T06:34:15;14.50;40.90
74384;DHT22;62824;52.994;-3.936;2023-05-21T06:36:40;14.40;43.40
74384;DHT22;62824;52.994;-3.936;2023-05-21T06:39:06;14.50;41.90
74384;DHT22;62824;52.994;-3.936;2023-05-21T06:41:32;14.50;44.80
74384;DHT22;62824;52.994;-3.936;2023-05-21T06:43:58;14.40;41.00
74384;DHT22;62824;52.994;-3.936;2023-05-21T06:46:23;14.40;41.50
74384;DHT22;62824;52.994;-3.936;2023-05-21T06:48:49;14.50;41.00
74384;DHT22;62824;52.994;-3.936;2023-05-21T06:51:15;14.50;41.70
74384;DHT22;62824;52.994;-3.936;2023-05-21T06:53:41;14.60;40.50
74384;DHT22;62824;52.994;-3.936;2023-05-21T06:56:06;14.60;44.00
74384;DHT22;62824;52.994;-3.936;2023-05-21T06:58:32;14.60;49.30
74384;DHT22;62824;52.994;-3.936;2023-05-21T07:00:59;14.70;45.00
74384;DHT22;62824;52.994;-3.936;2023-05-21T07:03:25;14.80;43.70
74384;DHT22;62824;52.994;-3.936;2023-05-21T07:05:55;14.90;37.60
74384;DHT22;62824;52.994;-3.936;2023-05-21T07:08:21;14.90;42.40
74384;DHT22;62824;52.994;-3.936;2023-05-21T07:10:48;14.90;45.70
74384;DHT22;62824;52.994;-3.936;2023-05-21T07:13:14;15.10;47.30
74384;DHT22;62824;52.994;-3.936;2023-05-21T07:15:40;15.10;52.60
74384;DHT22;62824;52.994;-3.936;2023-05-21T07:18:06;15.20;51.70
74384;DHT22;62824;52.994;-3.936;2023-05-21T07:20:32;15.20;41.80
74384;DHT22;62824;52.994;-3.936;2023-05-21T07:22:58;15.00;41.10
74384;DHT22;62824;52.994;-3.936;2023-05-21T07:25:23;15.00;41.40
74384;DHT22;62824;52.994;-3.936;2023-05-21T07:27:49;14.90;43.50
74384;DHT22;62824;52.994;-3.936;2023-05-21T07:30:15;15.00;41.50
74384;DHT22;62824;52.994;-3.936;2023-05-21T07:32:41;15.00;43.50
74384;DHT22;62824;52.994;-3.936;2023-05-21T07:35:07;15.00;45.30
74384;DHT22;62824;52.994;-3.936;2023-05-21T07:37:33;15.10;44.70
74384;DHT22;62824;52.994;-3.936;2023-05-21T07:39:59;15.20;46.10
74384;DHT22;62824;52.994;-3.936;2023-05-21T07:42:25;15.20;44.70
74384;DHT22;62824;52.994;-3.936;2023-05-21T07:44:50;15.20;47.40
74384;DHT22;62824;52.994;-3.936;2023-05-21T07:47:17;15.40;47.60
74384;DHT22;62824;52.994;-3.936;2023-05-21T07:49:42;15.50;47.90
74384;DHT22;62824;52.994;-3.936;2023-05-21T07:52:08;15.60;46.20
74384;DHT22;62824;52.994;-3.936;2023-05-21T07:54:34;15.70;41.00
74384;DHT22;62824;52.994;-3.936;2023-05-21T07:57:00;15.80;42.40
74384;DHT22;62824;52.994;-3.936;2023-05-21T07:59:28;15.80;45.90
74384;DHT22;62824;52.994;-3.936;2023-05-21T08:01:54;15.70;48.90
74384;DHT22;62824;52.994;-3.936;2023-05-21T08:04:20;15.70;46.10
74384;DHT22;62824;52.994;-3.936;2023-05-21T08:06:46;15.80;36.90
74384;DHT22;62824;52.994;-3.936;2023-05-21T08:09:13;16.00;34.60
74384;DHT22;62824;52.994;-3.936;2023-05-21T08:11:38;16.10;30.00
74384;DHT22;62824;52.994;-3.936;2023-05-21T08:14:04;16.20;20.40
74384;DHT22;62824;52.994;-3.936;2023-05-21T08:16:30;16.40;18.60
74384;DHT22;62824;52.994;-3.936;2023-05-21T08:18:56;16.40;16.00
74384;DHT22;62824;52.994;-3.936;2023-05-21T08:21:22;16.60;16.10
74384;DHT22;62824;52.994;-3.936;2023-05-21T08:23:48;16.60;15.20
74384;DHT22;62824;52.994;-3.936;2023-05-21T08:26:16;16.70;14.80
74384;DHT22;62824;52.994;-3.936;2023-05-21T08:28:42;16.70;14.20
74384;DHT22;62824;52.994;-3.936;2023-05-21T08:31:08;16.70;14.90
74384;DHT22;62824;52.994;-3.936;2023-05-21T08:33:34;16.80;13.70
74384;DHT22;62824;52.994;-3.936;2023-05-21T08:36:06;16.90;13.50
74384;DHT22;62824;52.994;-3.936;2023-05-21T08:38:33;17.00;12.60
74384;DHT22;62824;52.994;-3.936;2023-05-21T08:40:59;17.00;12.20
74384;DHT22;62824;52.994;-3.936;2023-05-21T08:43:28;17.20;12.50
74384;DHT22;62824;52.994;-3.936;2023-05-21T08:45:55;17.20;12.00
74384;DHT22;62824;52.994;-3.936;2023-05-21T08:48:23;17.30;12.00
74384;DHT22;62824;52.994;-3.936;2023-05-21T08:50:53;17.40;11.80
74384;DHT22;62824;52.994;-3.936;2023-05-21T08:53:20;17.60;11.60
74384;DHT22;62824;52.994;-3.936;2023-05-21T08:55:46;17.70;11.80
74384;DHT22;62824;52.994;-3.936;2023-05-21T08:58:13;17.90;11.10
74384;DHT22;62824;52.994;-3.936;2023-05-21T09:00:39;17.90;11.00
74384;DHT22;62824;52.994;-3.936;2023-05-21T09:03:05;18.00;10.50
74384;DHT22;62824;52.994;-3.936;2023-05-21T09:05:40;17.90;11.30
74384;DHT22;62824;52.994;-3.936;2023-05-21T09:08:13;17.90;11.90
74384;DHT22;62824;52.994;-3.936;2023-05-21T09:10:44;17.90;11.60
74384;DHT22;62824;52.994;-3.936;2023-05-21T09:13:11;17.80;9.40
74384;DHT22;62824;52.994;-3.936;2023-05-21T09:15:37;17.80;9.50
74384;DHT22;62824;52.994;-3.936;2023-05-21T09:18:03;17.80;9.40
74384;DHT22;62824;52.994;-3.936;2023-05-21T09:20:28;17.90;10.50
74384;DHT22;62824;52.994;-3.936;2023-05-21T09:23:02;17.80;10.10
74384;DHT22;62824;52.994;-3.936;2023-05-21T09:25:28;17.80;10.70
74384;DHT22;62824;52.994;-3.936;2023-05-21T09:27:55;17.80;11.20
74384;DHT22;62824;52.994;-3.936;2023-05-21T09:30:21;18.10;11.10
74384;DHT22;62824;52.994;-3.936;2023-05-21T09:32:52;18.20;9.10
74384;DHT22;62824;52.994;-3.936;2023-05-21T09:35:19;18.40;8.80
74384;DHT22;62824;52.994;-3.936;2023-05-21T09:37:47;18.60;8.90
74384;DHT22;62824;52.994;-3.936;2023-05-21T09:42:41;18.60;9.50
74384;DHT22;62824;52.994;-3.936;2023-05-21T09:45:08;19.00;9.50
74384;DHT22;62824;52.994;-3.936;2023-05-21T09:47:42;19.10;8.60
74384;DHT22;62824;52.994;-3.936;2023-05-21T09:50:19;19.20;7.90
74384;DHT22;62824;52.994;-3.936;2023-05-21T09:52:46;19.60;8.20
74384;DHT22;62824;52.994;-3.936;2023-05-21T09:55:13;19.60;8.50
74384;DHT22;62824;52.994;-3.936;2023-05-21T09:57:43;19.90;8.90
74384;DHT22;62824;52.994;-3.936;2023-05-21T10:00:26;20.00;8.60
74384;DHT22;62824;52.994;-3.936;2023-05-21T10:02:57;19.90;8.90
74384;DHT22;62824;52.994;-3.936;2023-05-21T10:05:29;20.20;8.90
74384;DHT22;62824;52.994;-3.936;2023-05-21T10:07:59;20.40;8.90
74384;DHT22;62824;52.994;-3.936;2023-05-21T10:10:28;20.60;9.40
74384;DHT22;62824;52.994;-3.936;2023-05-21T10:12:58;20.40;9.60
74384;DHT22;62824;52.994;-3.936;2023-05-21T10:15:24;20.40;9.70
74384;DHT22;62824;52.994;-3.936;2023-05-21T10:17:51;20.50;9.80
74384;DHT22;62824;52.994;-3.936;2023-05-21T10:20:19;20.90;9.40
74384;DHT22;62824;52.994;-3.936;2023-05-21T10:22:46;20.90;9.10
74384;DHT22;62824;52.994;-3.936;2023-05-21T10:25:12;20.60;9.50
74384;DHT22;62824;52.994;-3.936;2023-05-21T10:27:38;20.50;9.70
74384;DHT22;62824;52.994;-3.936;2023-05-21T10:30:05;20.10;9.80
74384;DHT22;62824;52.994;-3.936;2023-05-21T10:32:32;20.40;10.10
74384;DHT22;62824;52.994;-3.936;2023-05-21T10:34:58;20.50;10.10
74384;DHT22;62824;52.994;-3.936;2023-05-21T10:37:25;20.70;10.40
74384;DHT22;62824;52.994;-3.936;2023-05-21T10:39:54;20.60;10.10
74384;DHT22;62824;52.994;-3.936;2023-05-21T10:59:39;20.70;10.20
74384;DHT22;62824;52.994;-3.936;2023-05-21T11:02:08;20.90;10.10
74384;DHT22;62824;52.994;-3.936;2023-05-21T11:04:35;21.10;10.30
74384;DHT22;62824;52.994;-3.936;2023-05-21T11:07:04;21.30;9.80
74384;DHT22;62824;52.994;-3.936;2023-05-21T11:09:30;21.70;10.00
74384;DHT22;62824;52.994;-3.936;2023-05-21T11:11:57;21.30;9.90
74384;DHT22;62824;52.994;-3.936;2023-05-21T11:14:34;21.40;10.00
74384;DHT22;62824;52.994;-3.936;2023-05-21T11:19:45;21.30;10.60
74384;DHT22;62824;52.994;-3.936;2023-05-21T11:22:25;21.70;9.70
74384;DHT22;62824;52.994;-3.936;2023-05-21T11:24:56;22.20;8.90
74384;DHT22;62824;52.994;-3.936;2023-05-21T11:27:32;22.50;8.00
74384;DHT22;62824;52.994;-3.936;2023-05-21T11:29:58;22.30;8.00
74384;DHT22;62824;52.994;-3.936;2023-05-21T11:32:24;22.20;8.30
74384;DHT22;62824;52.994;-3.936;2023-05-21T11:34:50;22.00;8.90
74384;DHT22;62824;52.994;-3.936;2023-05-21T11:39:45;22.10;8.30
74384;DHT22;62824;52.994;-3.936;2023-05-21T11:42:12;22.20;8.90
74384;DHT22;62824;52.994;-3.936;2023-05-21T11:44:45;22.20;8.60
74384;DHT22;62824;52.994;-3.936;2023-05-21T11:47:12;22.60;8.80
74384;DHT22;62824;52.994;-3.936;2023-05-21T11:49:42;22.70;8.20
74384;DHT22;62824;52.994;-3.936;2023-05-21T11:52:09;23.10;8.10
74384;DHT22;62824;52.994;-3.936;2023-05-21T11:54:45;24.00;7.20
74384;DHT22;62824;52.994;-3.936;2023-05-21T11:57:13;23.80;6.20
74384;DHT22;62824;52.994;-3.936;2023-05-21T11:59:43;24.20;6.20
74384;DHT22;62824;52.994;-3.936;2023-05-21T12:02:17;24.50;5.50
74384;DHT22;62824;52.994;-3.936;2023-05-21T12:04:45;24.20;5.10
74384;DHT22;62824;52.994;-3.936;2023-05-21T12:07:12;24.50;5.00
74384;DHT22;62824;52.994;-3.936;2023-05-21T12:09:42;24.50;4.80
74384;DHT22;62824;52.994;-3.936;2023-05-21T12:12:09;23.80;5.30
74384;DHT22;62824;52.994;-3.936;2023-05-21T12:14:35;23.90;5.80
74384;DHT22;62824;52.994;-3.936;2023-05-21T12:17:03;24.00;5.60
74384;DHT22;62824;52.994;-3.936;2023-05-21T12:19:38;23.90;5.30
74384;DHT22;62824;52.994;-3.936;2023-05-21T12:22:06;23.90;5.40
74384;DHT22;62824;52.994;-3.936;2023-05-21T12:24:33;23.80;5.70
74384;DHT22;62824;52.994;-3.936;2023-05-21T12:27:00;23.90;5.70
74384;DHT22;62824;52.994;-3.936;2023-05-21T12:29:31;24.10;5.30
74384;DHT22;62824;52.994;-3.936;2023-05-21T12:32:01;23.70;5.50
74384;DHT22;62824;52.994;-3.936;2023-05-21T12:37:03;23.80;5.50
74384;DHT22;62824;52.994;-3.936;2023-05-21T12:39:36;24.10;5.70
74384;DHT22;62824;52.994;-3.936;2023-05-21T12:42:02;23.80;5.30
74384;DHT22;62824;52.994;-3.936;2023-05-21T12:44:31;23.30;6.10
74384;DHT22;62824;52.994;-3.936;2023-05-21T12:46:57;23.00;6.70
74384;DHT22;62824;52.994;-3.936;2023-05-21T12:51:57;23.10;7.20
74384;DHT22;62824;52.994;-3.936;2023-05-21T12:54:43;22.90;6.70
74384;DHT22;62824;52.994;-3.936;2023-05-21T12:57:14;22.80;6.70
74384;DHT22;62824;52.994;-3.936;2023-05-21T12:59:47;22.70;7.40
74384;DHT22;62824;52.994;-3.936;2023-05-21T13:02:20;22.80;7.50
74384;DHT22;62824;52.994;-3.936;2023-05-21T13:04:48;22.70;7.30
74384;DHT22;62824;52.994;-3.936;2023-05-21T13:07:14;22.70;7.40
74384;DHT22;62824;52.994;-3.936;2023-05-21T13:09:41;23.00;6.90
74384;DHT22;62824;52.994;-3.936;2023-05-21T13:12:07;23.00;7.20
74384;DHT22;62824;52.994;-3.936;2023-05-21T13:14:33;23.10;6.80
74384;DHT22;62824;52.994;-3.936;2023-05-21T13:16:58;23.00;6.90
74384;DHT22;62824;52.994;-3.936;2023-05-21T13:19:24;23.80;6.20
74384;DHT22;62824;52.994;-3.936;2023-05-21T13:21:50;23.60;5.60
74384;DHT22;62824;52.994;-3.936;2023-05-21T13:24:16;23.60;6.30
74384;DHT22;62824;52.994;-3.936;2023-05-21T13:26:41;23.60;6.80
74384;DHT22;62824;52.994;-3.936;2023-05-21T13:29:07;24.00;6.00
74384;DHT22;62824;52.994;-3.936;2023-05-21T13:31:34;24.20;5.90
74384;DHT22;62824;52.994;-3.936;2023-05-21T13:34:00;24.30;5.50
74384;DHT22;62824;52.994;-3.936;2023-05-21T13:36:25;24.60;5.30
74384;DHT22;62824;52.994;-3.936;2023-05-21T13:38:54;25.20;4.60
74384;DHT22;62824;52.994;-3.936;2023-05-21T13:41:20;24.80;4.40
74384;DHT22;62824;52.994;-3.936;2023-05-21T13:43:46;24.60;5.10
74384;DHT22;62824;52.994;-3.936;2023-05-21T13:46:12;24.00;5.30
74384;DHT22;62824;52.994;-3.936;2023-05-21T13:48:38;24.70;5.50
74384;DHT22;62824;52.994;-3.936;2023-05-21T13:51:04;24.50;5.60
74384;DHT22;62824;52.994;-3.936;2023-05-21T13:53:30;24.30;4.70
74384;DHT22;62824;52.994;-3.936;2023-05-21T13:55:56;24.00;5.00
74384;DHT22;62824;52.994;-3.936;2023-05-21T13:58:22;23.50;6.50
74384;DHT22;62824;52.994;-3.936;2023-05-21T14:00:47;24.10;7.20
74384;DHT22;62824;52.994;-3.936;2023-05-21T14:03:13;24.10;6.70
74384;DHT22;62824;52.994;-3.936;2023-05-21T14:05:39;24.10;7.30
74384;DHT22;62824;52.994;-3.936;2023-05-21T14:08:04;24.30;7.40
74384;DHT22;62824;52.994;-3.936;2023-05-21T14:10:31;24.40;7.00
74384;DHT22;62824;52.994;-3.936;2023-05-21T14:12:56;24.10;7.20
74384;DHT22;62824;52.994;-3.936;2023-05-21T14:15:22;23.60;8.10
74384;DHT22;62824;52.994;-3.936;2023-05-21T14:17:48;23.50;8.70
74384;DHT22;62824;52.994;-3.936;2023-05-21T14:20:13;24.30;7.70
74384;DHT22;62824;52.994;-3.936;2023-05-21T14:22:39;23.80;7.80
74384;DHT22;62824;52.994;-3.936;2023-05-21T14:25:05;23.90;7.80
74384;DHT22;62824;52.994;-3.936;2023-05-21T14:27:31;23.60;7.60
74384;DHT22;62824;52.994;-3.936;2023-05-21T14:29:57;24.10;7.70
74384;DHT22;62824;52.994;-3.936;2023-05-21T14:32:23;24.20;6.80
74384;DHT22;62824;52.994;-3.936;2023-05-21T14:34:48;24.10;7.30
74384;DHT22;62824;52.994;-3.936;2023-05-21T14:37:14;24.10;6.80
74384;DHT22;62824;52.994;-3.936;2023-05-21T14:39:40;23.90;8.00
74384;DHT22;62824;52.994;-3.936;2023-05-21T14:42:06;24.10;7.70
74384;DHT22;62824;52.994;-3.936;2023-05-21T14:44:31;23.70;8.00
74384;DHT22;62824;52.994;-3.936;2023-05-21T14:46:57;23.90;8.50
74384;DHT22;62824;52.994;-3.936;2023-05-21T14:49:23;23.50;7.50
74384;DHT22;62824;52.994;-3.936;2023-05-21T14:51:48;24.00;7.60
74384;DHT22;62824;52.994;-3.936;2023-05-21T14:54:14;23.60;7.60
74384;DHT22;62824;52.994;-3.936;2023-05-21T14:56:40;23.30;7.90
74384;DHT22;62824;52.994;-3.936;2023-05-21T14:59:06;23.30;8.40
74384;DHT22;62824;52.994;-3.936;2023-05-21T15:01:32;23.30;9.00
74384;DHT22;62824;52.994;-3.936;2023-05-21T15:03:58;23.80;8.50
74384;DHT22;62824;52.994;-3.936;2023-05-21T15:06:23;23.70;7.10
74384;DHT22;62824;52.994;-3.936;2023-05-21T15:08:49;23.30;8.80
74384;DHT22;62824;52.994;-3.936;2023-05-21T15:11:15;23.00;9.10
74384;DHT22;62824;52.994;-3.936;2023-05-21T15:13:41;23.20;9.00
74384;DHT22;62824;52.994;-3.936;2023-05-21T15:16:07;23.10;9.00
74384;DHT22;62824;52.994;-3.936;2023-05-21T15:18:32;23.20;8.70
74384;DHT22;62824;52.994;-3.936;2023-05-21T15:20:58;22.70;9.20
74384;DHT22;62824;52.994;-3.936;2023-05-21T15:23:24;22.90;9.00
74384;DHT22;62824;52.994;-3.936;2023-05-21T15:25:50;22.80;9.00
74384;DHT22;62824;52.994;-3.936;2023-05-21T15:28:16;22.90;10.00
74384;DHT22;62824;52.994;-3.936;2023-05-21T15:30:41;22.90;9.60
74384;DHT22;62824;52.994;-3.936;2023-05-21T15:33:07;23.20;9.60
74384;DHT22;62824;52.994;-3.936;2023-05-21T15:35:36;22.90;9.20
74384;DHT22;62824;52.994;-3.936;2023-05-21T15:38:02;22.90;9.60
74384;DHT22;62824;52.994;-3.936;2023-05-21T15:40:27;22.90;9.60
74384;DHT22;62824;52.994;-3.936;2023-05-21T15:42:53;22.90;10.00
74384;DHT22;62824;52.994;-3.936;2023-05-21T15:45:19;22.70;9.80
74384;DHT22;62824;52.994;-3.936;2023-05-21T15:47:45;22.30;9.80
74384;DHT22;62824;52.994;-3.936;2023-05-21T15:50:10;22.30;10.60
74384;DHT22;62824;52.994;-3.936;2023-05-21T15:52:36;22.00;10.90